createdAt,value
2022-08-10T00:00:37.864Z,77.80
2022-08-10T00:03:07.787Z,77.90
2022-08-10T00:05:43.152Z,78.00
2022-08-10T00:08:11.157Z,77.80
2022-08-10T00:10:49.765Z,77.50
2022-08-10T00:13:16.760Z,77.90
2022-08-10T00:15:51.842Z,78.10
2022-08-10T00:18:35.196Z,78.60
2022-08-10T00:21:05.580Z,78.50
2022-08-10T00:23:33.286Z,78.90
2022-08-10T00:26:00.575Z,79.40
2022-08-10T00:28:27.648Z,78.80
2022-08-10T00:30:54.695Z,79.10
2022-08-10T00:33:22.114Z,79.70
2022-08-10T00:35:49.507Z,79.40
2022-08-10T00:38:16.502Z,79.30
2022-08-10T00:40:43.687Z,79.40
2022-08-10T00:43:10.709Z,79.60
2022-08-10T00:45:37.711Z,79.90
2022-08-10T00:48:04.852Z,79.70
2022-08-10T00:50:31.948Z,80.10
2022-08-10T00:52:59.333Z,80.40
2022-08-10T00:55:26.924Z,80.40
2022-08-10T00:57:55.603Z,80.50
2022-08-10T01:00:23.943Z,80.60
2022-08-10T01:02:51.669Z,80.50
2022-08-10T01:05:20.478Z,80.90
2022-08-10T01:07:58.560Z,80.60
2022-08-10T01:10:33.691Z,80.50
2022-08-10T01:13:21.861Z,80.90
2022-08-10T01:15:48.907Z,81.00
2022-08-10T01:18:28.390Z,81.10
2022-08-10T01:21:18.059Z,81.10
2022-08-10T01:24:20.037Z,81.20
2022-08-10T01:27:19.306Z,81.20
2022-08-10T01:30:02.310Z,81.60
2022-08-10T01:32:40.906Z,81.60
2022-08-10T01:35:44.666Z,81.90
2022-08-10T01:38:17.144Z,82.20
2022-08-10T01:40:54.584Z,82.40
2022-08-10T01:43:23.619Z,82.40
2022-08-10T01:45:55.747Z,82.50
2022-08-10T01:48:32.881Z,83.30
2022-08-10T01:51:17.666Z,83.30
2022-08-10T01:53:52.114Z,83.30
2022-08-10T01:56:23.074Z,83.20
2022-08-10T01:58:56.975Z,83.40
2022-08-10T02:01:27.701Z,83.40
2022-08-10T02:04:05.463Z,83.40
2022-08-10T02:06:44.619Z,83.40
2022-08-10T02:09:19.865Z,83.60
2022-08-10T02:11:55.704Z,83.60
2022-08-10T02:14:48.106Z,83.60
2022-08-10T02:17:58.211Z,84.30
2022-08-10T02:20:11.219Z,84.40
2022-08-10T02:22:39.808Z,84.70
2022-08-10T02:25:09.096Z,85.50
2022-08-10T02:27:38.651Z,85.70
2022-08-10T02:30:07.135Z,86.10
2022-08-10T02:32:37.940Z,86.80
2022-08-10T02:35:19.385Z,86.40
2022-08-10T02:37:53.096Z,86.60
2022-08-10T02:42:18.288Z,86.90
2022-08-10T02:45:27.247Z,87.10
2022-08-10T02:46:26.891Z,87.10
2022-08-10T02:49:03.255Z,87.20
2022-08-10T02:52:06.813Z,87.70
2022-08-10T02:54:39.616Z,88.10
2022-08-10T02:57:19.189Z,88.20
2022-08-10T02:59:50.548Z,88.40
2022-08-10T03:02:29.348Z,88.60
2022-08-10T03:05:03.198Z,89.00
2022-08-10T03:07:42.908Z,89.30
2022-08-10T03:10:16.652Z,89.70
2022-08-10T03:12:45.691Z,90.00
2022-08-10T03:15:15.516Z,90.00
2022-08-10T03:17:57.707Z,90.50
2022-08-10T03:20:36.611Z,90.70
2022-08-10T03:23:12.918Z,90.70
2022-08-10T03:25:40.615Z,90.80
2022-08-10T03:28:10.774Z,90.90
2022-08-10T03:30:45.544Z,91.10
2022-08-10T03:33:13.919Z,91.30
2022-08-10T03:35:41.175Z,91.50
2022-08-10T03:38:08.177Z,91.70
2022-08-10T03:40:45.538Z,91.90
2022-08-10T03:43:19.327Z,92.20
2022-08-10T03:45:54.672Z,92.30
2022-08-10T03:48:24.471Z,92.50
2022-08-10T03:51:01.507Z,92.70
2022-08-10T03:54:06.155Z,92.80
2022-08-10T03:56:30.546Z,93.00
2022-08-10T03:58:58.739Z,93.10
2022-08-10T04:02:43.146Z,93.20
2022-08-10T04:04:19.206Z,93.50
2022-08-10T04:06:54.619Z,93.60
2022-08-10T04:09:55.930Z,93.70
2022-08-10T04:12:17.230Z,93.80
2022-08-10T04:14:50.982Z,94.10
2022-08-10T04:18:05.221Z,94.30
2022-08-10T04:20:35.002Z,94.70
2022-08-10T04:23:07.799Z,95.00
2022-08-10T04:25:35.783Z,95.20
2022-08-10T04:28:03.688Z,94.90
2022-08-10T04:30:32.773Z,95.40
2022-08-10T04:33:02.367Z,95.40
2022-08-10T04:35:30.358Z,95.20
2022-08-10T04:37:59.534Z,95.40
2022-08-10T04:40:29.709Z,95.20
2022-08-10T04:43:02.126Z,95.60
2022-08-10T04:45:49.717Z,95.50
2022-08-10T04:48:42.206Z,95.90
2022-08-10T04:51:19.204Z,96.40
2022-08-10T04:54:04.022Z,96.40
2022-08-10T04:56:34.456Z,96.40
2022-08-10T04:59:01.446Z,96.50
2022-08-10T05:02:09.932Z,96.40
2022-08-10T05:04:36.023Z,96.40
2022-08-10T05:07:05.434Z,96.60
2022-08-10T05:09:32.488Z,96.60
2022-08-10T05:11:59.492Z,96.80
2022-08-10T05:14:26.545Z,96.70
2022-08-10T05:16:53.458Z,96.60
2022-08-10T05:20:02.033Z,96.70
2022-08-10T05:22:07.379Z,96.70
2022-08-10T05:24:34.308Z,96.60
2022-08-10T05:27:09.522Z,96.60
2022-08-10T05:29:37.925Z,96.60
2022-08-10T05:32:05.466Z,96.60
2022-08-10T05:34:32.407Z,96.40
2022-08-10T05:37:00.256Z,96.50
2022-08-10T05:39:30.336Z,96.70
2022-08-10T05:42:01.902Z,96.80
2022-08-10T05:44:29.893Z,96.30
2022-08-10T05:46:57.307Z,96.20
2022-08-10T05:49:25.077Z,96.00
2022-08-10T05:51:52.674Z,95.80
2022-08-10T05:54:20.184Z,96.10
2022-08-10T05:56:56.807Z,95.40
2022-08-10T06:00:11.182Z,95.40
2022-08-10T06:02:34.929Z,95.70
2022-08-10T06:05:13.730Z,95.50
2022-08-10T06:07:46.721Z,95.50
2022-08-10T06:10:19.642Z,95.30
2022-08-10T06:13:30.280Z,95.10
2022-08-10T06:16:02.596Z,95.30
2022-08-10T06:18:30.155Z,95.00
2022-08-10T06:20:58.139Z,94.90
2022-08-10T06:23:28.374Z,94.90
2022-08-10T06:26:10.293Z,94.70
2022-08-10T06:28:58.222Z,93.90
2022-08-10T06:31:46.715Z,94.20
2022-08-10T06:34:15.604Z,93.40
2022-08-10T06:36:44.589Z,93.10
2022-08-10T06:39:32.536Z,92.60
2022-08-10T06:42:18.327Z,92.20
2022-08-10T06:44:59.496Z,91.90
2022-08-10T06:47:41.818Z,91.60
2022-08-10T06:50:34.866Z,91.80
2022-08-10T06:53:22.121Z,91.60
2022-08-10T06:55:56.446Z,91.70
2022-08-10T06:58:36.876Z,91.00
2022-08-10T07:01:09.066Z,90.90
2022-08-10T07:03:42.748Z,90.20
2022-08-10T07:06:13.959Z,90.00
2022-08-10T07:08:41.888Z,89.70
2022-08-10T07:11:12.206Z,89.70
2022-08-10T07:14:16.247Z,88.70
2022-08-10T07:16:30.267Z,88.20
2022-08-10T07:19:00.389Z,88.50
2022-08-10T07:21:29.851Z,87.40
2022-08-10T07:24:00.786Z,86.80
2022-08-10T07:26:31.271Z,86.90
2022-08-10T07:28:59.336Z,86.00
2022-08-10T07:31:54.377Z,86.20
2022-08-10T07:34:29.489Z,86.00
2022-08-10T07:37:02.363Z,85.40
2022-08-10T07:40:03.821Z,85.40
2022-08-10T07:42:23.309Z,85.20
2022-08-10T07:44:51.364Z,84.60
2022-08-10T07:47:46.114Z,82.60
2022-08-10T07:50:12.904Z,82.90
2022-08-10T07:52:40.439Z,82.00
2022-08-10T07:55:10.384Z,82.50
2022-08-10T07:57:40.272Z,81.00
2022-08-10T08:00:11.049Z,81.60
2022-08-10T08:02:57.658Z,81.20
2022-08-10T08:05:58.988Z,80.60
2022-08-10T08:08:20.040Z,78.50
2022-08-10T08:10:49.191Z,79.20
2022-08-10T08:13:17.671Z,80.30
2022-08-10T08:16:18.526Z,79.30
2022-08-10T08:18:36.963Z,79.60
2022-08-10T08:21:16.030Z,78.70
2022-08-10T08:24:30.561Z,78.90
2022-08-10T08:26:41.537Z,78.60
2022-08-10T08:29:13.761Z,77.40
2022-08-10T08:32:01.792Z,76.80
2022-08-10T08:34:31.670Z,75.60
2022-08-10T08:37:00.920Z,76.10
2022-08-10T08:39:28.609Z,75.30
2022-08-10T08:42:15.588Z,74.30
2022-08-10T08:44:49.759Z,72.30
2022-08-10T08:48:04.688Z,71.80
2022-08-10T08:50:59.516Z,70.90
2022-08-10T08:54:01.613Z,68.30
2022-08-10T08:56:39.748Z,67.70
2022-08-10T08:59:42.423Z,67.30
2022-08-10T09:02:54.454Z,65.90
2022-08-10T09:05:58.661Z,66.40
2022-08-10T09:08:59.851Z,66.30
2022-08-10T09:11:45.752Z,64.20
2022-08-10T09:14:37.223Z,64.10
2022-08-10T09:17:27.557Z,65.00
2022-08-10T09:20:07.347Z,63.90
2022-08-10T09:22:51.683Z,63.40
2022-08-10T09:25:20.624Z,62.20
2022-08-10T09:27:56.010Z,60.80
2022-08-10T09:30:35.711Z,60.90
2022-08-10T09:36:19.798Z,59.90
2022-08-10T09:36:42.102Z,58.80
2022-08-10T09:40:56.231Z,61.80
2022-08-10T09:42:49.768Z,60.80
2022-08-10T09:45:44.539Z,60.00
2022-08-10T09:48:35.168Z,59.10
2022-08-10T09:51:44.668Z,59.60
2022-08-10T09:54:27.631Z,58.80
2022-08-10T09:57:55.258Z,57.90
2022-08-10T10:00:14.860Z,59.50
2022-08-10T10:03:00.339Z,58.70
2022-08-10T10:05:51.942Z,59.90
2022-08-10T10:08:25.087Z,58.70
2022-08-10T10:11:03.334Z,60.10
2022-08-10T10:14:04.366Z,59.40
2022-08-10T10:16:43.905Z,59.00
2022-08-10T10:19:17.424Z,59.20
2022-08-10T10:21:54.639Z,59.30
2022-08-10T10:24:51.163Z,57.80
2022-08-10T10:27:58.194Z,56.60
2022-08-10T10:30:32.113Z,56.70
2022-08-10T10:33:13.249Z,57.00
2022-08-10T10:35:52.170Z,58.00
2022-08-10T10:38:21.619Z,57.50
2022-08-10T10:41:01.486Z,55.50
2022-08-10T10:43:31.347Z,55.30
2022-08-10T10:46:12.635Z,56.10
2022-08-10T10:49:11.557Z,55.40
2022-08-10T10:51:44.824Z,56.50
2022-08-10T10:54:44.999Z,54.00
2022-08-10T10:57:11.782Z,54.80
2022-08-10T11:00:02.378Z,54.80
2022-08-10T11:02:41.437Z,55.80
2022-08-10T11:05:24.345Z,55.70
2022-08-10T11:08:01.640Z,54.50
2022-08-10T11:10:47.677Z,54.90
2022-08-10T11:14:27.235Z,54.50
2022-08-10T11:16:35.879Z,54.10
2022-08-10T11:19:26.342Z,54.80
2022-08-10T11:22:24.880Z,54.80
2022-08-10T11:25:11.694Z,53.60
2022-08-10T11:27:56.627Z,53.50
2022-08-10T11:30:36.456Z,53.90
2022-08-10T11:33:30.843Z,54.60
2022-08-10T11:36:04.129Z,52.90
2022-08-10T11:38:47.161Z,52.40
2022-08-10T11:42:10.195Z,53.10
2022-08-10T11:44:36.603Z,52.60
2022-08-10T11:47:11.040Z,52.80
2022-08-10T11:50:01.899Z,53.00
2022-08-10T11:52:44.772Z,52.20
2022-08-10T11:55:18.888Z,51.70
2022-08-10T11:57:54.150Z,51.30
2022-08-10T12:00:25.290Z,51.80
2022-08-10T12:03:04.788Z,51.90
2022-08-10T12:05:54.448Z,51.70
2022-08-10T12:10:07.123Z,51.40
2022-08-10T12:11:24.624Z,52.10
2022-08-10T12:14:22.625Z,51.50
2022-08-10T12:17:02.019Z,52.20
2022-08-10T12:19:59.364Z,51.40
2022-08-10T12:22:34.245Z,51.10
2022-08-10T12:25:09.345Z,51.30
2022-08-10T12:27:48.315Z,51.60
2022-08-10T12:30:17.132Z,51.00
2022-08-10T12:33:03.296Z,50.40
2022-08-10T12:35:56.036Z,50.10
2022-08-10T12:38:51.992Z,51.10
2022-08-10T12:41:44.892Z,50.00
2022-08-10T12:44:22.405Z,50.30
2022-08-10T12:47:11.818Z,49.50
2022-08-10T12:50:21.638Z,50.20
2022-08-10T12:52:50.170Z,51.70
2022-08-10T12:55:21.669Z,50.10
2022-08-10T12:57:53.910Z,48.60
2022-08-10T13:00:32.738Z,50.00
2022-08-10T13:03:02.073Z,49.70
2022-08-10T13:06:02.587Z,51.00
2022-08-10T13:08:40.322Z,51.10
2022-08-10T13:12:14.257Z,52.00
2022-08-10T13:14:02.414Z,51.30
2022-08-10T13:16:31.839Z,51.30
2022-08-10T13:19:02.040Z,51.20
2022-08-10T13:21:36.027Z,51.30
2022-08-10T13:24:16.287Z,51.20
2022-08-10T13:27:25.857Z,51.00
2022-08-10T13:29:44.012Z,51.10
2022-08-10T13:32:14.347Z,50.30
2022-08-10T13:34:46.536Z,51.40
2022-08-10T13:37:21.372Z,50.80
2022-08-10T13:39:58.187Z,50.40
2022-08-10T13:42:32.582Z,51.50
2022-08-10T13:45:08.800Z,50.30
2022-08-10T13:47:48.598Z,51.30
2022-08-10T13:50:34.539Z,50.70
2022-08-10T13:53:07.713Z,50.20
2022-08-10T13:55:53.763Z,50.60
2022-08-10T13:58:29.425Z,50.20
2022-08-10T14:01:08.211Z,49.80
2022-08-10T14:03:38.853Z,50.20
2022-08-10T14:06:11.449Z,51.10
2022-08-10T14:08:39.448Z,50.80
2022-08-10T14:11:13.538Z,50.40
2022-08-10T14:13:45.664Z,50.40
2022-08-10T14:16:14.138Z,50.10
2022-08-10T14:18:44.893Z,50.90
2022-08-10T14:21:13.739Z,51.40
2022-08-10T14:23:52.337Z,50.10
2022-08-10T14:26:31.185Z,49.80
2022-08-10T14:29:05.322Z,49.60
2022-08-10T14:31:34.936Z,49.80
2022-08-10T14:34:04.450Z,50.10
2022-08-10T14:36:44.880Z,49.80
2022-08-10T14:39:25.437Z,50.40
2022-08-10T14:42:02.843Z,51.40
2022-08-10T14:44:45.114Z,50.60
2022-08-10T14:47:53.244Z,52.10
2022-08-10T14:50:03.497Z,51.40
2022-08-10T14:52:39.474Z,50.00
2022-08-10T14:55:19.039Z,49.60
2022-08-10T14:58:16.955Z,48.60
2022-08-10T15:00:42.788Z,49.30
2022-08-10T15:04:00.768Z,49.40
2022-08-10T15:06:17.251Z,49.30
2022-08-10T15:08:46.862Z,49.70
2022-08-10T15:12:11.931Z,50.20
2022-08-10T15:14:29.332Z,49.50
2022-08-10T15:16:57.932Z,49.70
2022-08-10T15:20:03.002Z,48.90
2022-08-10T15:22:37.027Z,48.60
2022-08-10T15:25:06.804Z,48.70
2022-08-10T15:27:53.877Z,48.40
2022-08-10T15:30:31.726Z,49.70
2022-08-10T15:33:57.398Z,49.60
2022-08-10T15:37:02.148Z,48.90
2022-08-10T15:40:21.433Z,48.20
2022-08-10T15:42:34.179Z,47.80
2022-08-10T15:45:01.991Z,48.70
2022-08-10T15:47:45.633Z,48.50
2022-08-10T15:50:27.942Z,48.60
2022-08-10T15:53:09.978Z,49.00
2022-08-10T15:55:56.781Z,47.80
2022-08-10T15:58:40.447Z,48.20
2022-08-10T16:02:14.322Z,49.00
2022-08-10T16:04:08.966Z,48.90
2022-08-10T16:06:42.867Z,48.10
2022-08-10T16:10:24.136Z,48.50
2022-08-10T16:12:13.369Z,47.50
2022-08-10T16:14:45.292Z,48.70
2022-08-10T16:17:13.524Z,47.90
2022-08-10T16:20:08.050Z,49.30
2022-08-10T16:22:37.451Z,48.40
2022-08-10T16:25:14.148Z,48.60
2022-08-10T16:27:43.023Z,48.20
2022-08-10T16:30:10.317Z,48.20
2022-08-10T16:32:39.672Z,47.90
2022-08-10T16:35:10.278Z,47.80
2022-08-10T16:37:58.179Z,47.40
2022-08-10T16:40:29.475Z,47.70
2022-08-10T16:42:58.678Z,48.30
2022-08-10T16:45:36.778Z,49.10
2022-08-10T16:48:05.745Z,47.40
2022-08-10T16:50:38.640Z,47.30
2022-08-10T16:53:10.049Z,48.00
2022-08-10T16:55:47.628Z,47.60
2022-08-10T16:58:45.757Z,47.50
2022-08-10T17:01:15.340Z,48.00
2022-08-10T17:04:06.623Z,48.10
2022-08-10T17:06:42.095Z,48.50
2022-08-10T17:09:17.077Z,48.40
2022-08-10T17:11:49.138Z,47.50
2022-08-10T17:14:16.508Z,47.90
2022-08-10T17:16:51.302Z,48.20
2022-08-10T17:19:21.685Z,47.60
2022-08-10T17:21:52.748Z,48.30
2022-08-10T17:24:26.771Z,47.70
2022-08-10T17:26:57.884Z,48.10
2022-08-10T17:29:59.225Z,48.40
2022-08-10T17:32:44.064Z,48.10
2022-08-10T17:35:13.777Z,47.80
2022-08-10T17:37:47.549Z,47.90
2022-08-10T17:40:23.453Z,47.80
2022-08-10T17:42:52.290Z,48.20
2022-08-10T17:45:48.439Z,48.80
2022-08-10T17:48:18.634Z,49.20
2022-08-10T17:50:50.340Z,48.40
2022-08-10T17:53:41.997Z,49.40
2022-08-10T17:56:10.667Z,49.60
2022-08-10T17:58:40.989Z,48.90
2022-08-10T18:01:42.130Z,48.60
2022-08-10T18:03:59.379Z,49.30
2022-08-10T18:06:28.455Z,48.50
2022-08-10T18:08:58.847Z,49.30
2022-08-10T18:11:29.015Z,49.50
2022-08-10T18:14:04.740Z,49.60
2022-08-10T18:16:33.964Z,50.20
2022-08-10T18:19:08.037Z,49.90
2022-08-10T18:21:41.391Z,50.10
2022-08-10T18:24:17.710Z,50.10
2022-08-10T18:26:51.737Z,50.00
2022-08-10T18:29:27.149Z,50.20
2022-08-10T18:32:00.533Z,50.40
2022-08-10T18:34:30.163Z,50.40
2022-08-10T18:36:57.590Z,50.50
2022-08-10T18:39:34.027Z,50.80
2022-08-10T18:42:25.706Z,50.90
2022-08-10T18:45:01.034Z,51.00
2022-08-10T18:47:32.976Z,51.20
2022-08-10T18:50:06.103Z,51.30
2022-08-10T18:52:34.767Z,51.80
2022-08-10T18:55:27.123Z,52.10
2022-08-10T18:58:32.696Z,52.20
2022-08-10T19:01:24.693Z,52.30
2022-08-10T19:04:04.491Z,52.60
2022-08-10T19:06:43.708Z,53.00
2022-08-10T19:09:46.275Z,53.10
2022-08-10T19:12:29.941Z,53.50
2022-08-10T19:15:25.739Z,53.50
2022-08-10T19:18:24.430Z,53.60
2022-08-10T19:21:13.002Z,54.00
2022-08-10T19:23:51.843Z,54.30
2022-08-10T19:26:43.723Z,54.60
2022-08-10T19:30:07.953Z,54.70
2022-08-10T19:32:25.133Z,54.80
2022-08-10T19:35:03.908Z,55.10
2022-08-10T19:37:35.371Z,55.50
2022-08-10T19:40:43.519Z,55.60
2022-08-10T19:43:59.955Z,55.70
2022-08-10T19:46:52.435Z,55.90
2022-08-10T19:49:44.244Z,56.20
2022-08-10T19:52:34.174Z,56.40
2022-08-10T19:55:19.201Z,56.60
2022-08-10T19:57:50.603Z,57.30
2022-08-10T20:00:22.828Z,57.00
2022-08-10T20:03:10.785Z,57.50
2022-08-10T20:06:15.338Z,57.50
2022-08-10T20:08:44.486Z,57.60
2022-08-10T20:11:45.503Z,57.80
2022-08-10T20:14:21.377Z,57.70
2022-08-10T20:16:51.685Z,57.60
2022-08-10T20:19:23.139Z,57.70
2022-08-10T20:22:04.600Z,58.00
2022-08-10T20:24:48.300Z,58.20
2022-08-10T20:27:59.961Z,58.30
2022-08-10T20:30:33.228Z,58.70
2022-08-10T20:33:07.769Z,58.60
2022-08-10T20:35:43.534Z,59.10
2022-08-10T20:38:21.154Z,59.40
2022-08-10T20:41:02.913Z,59.60
2022-08-10T20:43:52.814Z,60.00
2022-08-10T20:46:32.046Z,60.50
2022-08-10T20:49:08.264Z,61.10
2022-08-10T20:51:59.020Z,61.20
2022-08-10T20:54:41.443Z,61.40
2022-08-10T20:57:54.922Z,61.60
2022-08-10T21:00:23.095Z,61.50
2022-08-10T21:03:43.878Z,61.80
2022-08-10T21:06:45.867Z,61.90
2022-08-10T21:09:50.615Z,62.00
2022-08-10T21:12:44.250Z,62.70
2022-08-10T21:15:31.456Z,62.60
2022-08-10T21:18:44.953Z,62.60
2022-08-10T21:21:41.902Z,62.30
2022-08-10T21:25:41.793Z,62.50
2022-08-10T21:27:40.226Z,62.50
2022-08-10T21:30:17.559Z,62.90
2022-08-10T21:32:56.100Z,62.80
2022-08-10T21:35:37.041Z,63.00
2022-08-10T21:38:26.419Z,63.50
2022-08-10T21:41:18.052Z,64.40
2022-08-10T21:44:05.432Z,64.00
2022-08-10T21:47:01.639Z,65.00
2022-08-10T21:50:10.560Z,64.50
2022-08-10T21:53:00.863Z,64.40
2022-08-10T21:56:16.470Z,65.10
2022-08-10T21:59:18.598Z,64.90
2022-08-10T22:02:11.766Z,65.30
2022-08-10T22:04:58.188Z,65.40
2022-08-10T22:07:48.080Z,65.50
2022-08-10T22:10:39.182Z,65.70
2022-08-10T22:13:26.012Z,65.80
2022-08-10T22:16:15.472Z,65.50
2022-08-10T22:19:04.367Z,65.30
2022-08-10T22:22:28.062Z,65.40
2022-08-10T22:25:20.875Z,65.50
2022-08-10T22:31:28.961Z,65.40
2022-08-10T22:34:55.045Z,66.10
2022-08-10T22:37:57.378Z,66.60
2022-08-10T22:40:44.065Z,66.90
2022-08-10T22:43:41.469Z,66.50
2022-08-10T22:46:47.415Z,66.60
2022-08-10T22:49:22.113Z,67.00
2022-08-10T22:51:54.349Z,66.90
2022-08-10T22:54:45.868Z,67.20
2022-08-10T22:57:34.305Z,67.50
2022-08-10T23:00:31.049Z,67.80
2022-08-10T23:03:21.530Z,67.70
2022-08-10T23:06:14.599Z,67.80
2022-08-10T23:08:46.952Z,67.50
2022-08-10T23:11:36.469Z,68.30
2022-08-10T23:14:09.663Z,67.90
2022-08-10T23:17:05.970Z,68.20
2022-08-10T23:19:45.715Z,68.00
2022-08-10T23:22:15.550Z,67.80
2022-08-10T23:24:53.199Z,68.20
2022-08-10T23:27:37.901Z,68.60
2022-08-10T23:30:16.978Z,68.90
2022-08-10T23:32:59.140Z,68.90
2022-08-10T23:36:27.175Z,69.50
2022-08-10T23:38:20.567Z,70.00
2022-08-10T23:40:49.657Z,70.40
2022-08-10T23:43:40.783Z,70.90
2022-08-10T23:46:13.958Z,71.30
2022-08-10T23:48:47.022Z,71.20
2022-08-10T23:51:17.385Z,71.20
2022-08-10T23:53:47.154Z,71.50
2022-08-10T23:56:19.832Z,72.00
2022-08-10T23:58:55.211Z,72.60
